Delta Virtual Airport Information Service

Providence Theodore Francis Green Airport

ICAO: KPVD Country: United States
Latitude: 41.724 Longitude: -71.4282
Latest Arrival : AAL9458 (C) (KDFW-KPVD) Latest Departure : SWA1990 (A) (KPVD-KMCO)


WX CaptureLIVE
Data provided by noaa.gov | Fetched at 15:36:41

METAR : KPVD 091951Z COR 19014KT 10SM FEW040 FEW060 SCT095 SCT300 31/21 A3004 RMK AO2 SLP171 T03060211

TAF : KPVD 092025Z 0920/1018 20010KT P6SM FEW050 FM100300 21005KT P6SM SKC FM101300 24008KT P6SM FEW050


Runway Data for KPVD
Data provided by openaviationdata.com

Runway ID Mag Var Hdg Length Elevation Surface ILS Freq ILS Id ILS Slope
5 -14 46° 7166 ft 55 ft Asphalt 109.3 IPVD 3
16 -14 155° 6080 ft 55 ft Asphalt -- -- --
23 -14 226° 7166 ft 55 ft Asphalt 109.3 IARJ 3
34 -14 335° 6080 ft 55 ft Asphalt 111.5 IUNQ 3

Providence Theodore Francis Green Airport, United States
Use only for reference purposes



Not for navigational purposes.